Tiempo atmosférico en la estación meteorológica de Ronda Instituto, Málaga (760 m.)



Fecha
DESCASC
Temp. máxima en grados centígrados (hora)
DESCASC
Temp. mínima en grados centígrados (hora)
DESCASC
Temp. media en grados centígrados
DESCASC
Racha de viento máxima en m/sg (hora)
DESCASC
Velocidad máxima media en intervalos de 10 minutos(hora)
DESCASC
Precipitaciones diarias en mm
DESCASC
Precipitaciones de 00:00 a 06:00 en mm
DESCASC
Precipitaciones de 06:00 a 12:00 en mm
DESCASC
Precipitaciones de 12:00 a 18:00 en mm
DESCASC
Precipitaciones de 18:00 a 24:00 en mm
DESCASC
25-01-2020 8.1 (14:20) 6.5 (21:00) 7.3 11.39 (08:10) 6.11 (08:20) 15.8 3.8 5.6 6.2 0.2
24-01-2020 9.6 (12:40) 6.5 (00:00) 8.1 8.89 (21:50) 4.44 (21:40) 10.8 0.4 0 5.6 4.8
23-01-2020 10.5 (15:10) 5.9 (00:00) 8.2 9.17 (12:30) 4.44 (11:30) 20 1.6 0.8 5 12.6
22-01-2020 8.9 (15:40) 4.1 (00:00) 6.5 7.5 (14:30) 3.89 (14:30) 11.4 7.6 1.6 0.6 1.6
21-01-2020 8.6 (15:00) 1.7 (00:00) 5.2 6.39 (11:40) 3.61 (12:00) 0.4 0 0 0 0.4
20-01-2020 3.9 (12:50) 0.4 (00:00) 2.2 8.61 (06:30) 4.44 (06:30) 3.4 0.2 0 3 0.2
19-01-2020 11.8 (00:00) 3.2 (00:00) 7.5 13.33 (01:50) 6.67 (01:30) 2.8 1 0.2 1.4 0.2
18-01-2020 13.5 (13:20) 5.3 (00:00) 9.4 8.61 (14:30) 3.06 (22:40) 4.4 0 0 2 2.4
17-01-2020 14.5 (15:40) 6 (00:00) 10.3 5 (16:20) 2.22 (16:20) 0 0 0 0 0
16-01-2020 16.4 (15:00) 5.1 (00:00) 10.7 5.83 (16:10) 2.22 (16:10) 0 0 0 0 0
15-01-2020 15.6 (15:30) 4.5 (00:00) 10.1 6.67 (16:10) 3.33 (16:10) 0 0 0 0 0
14-01-2020 11.7 (16:20) 2.7 (00:00) 7.2 6.39 (15:20) 3.33 (15:10) 0 0 0 0 0
13-01-2020 14.3 (15:10) 3.4 (00:00) 8.9 5.28 (17:50) 2.78 (18:40) 0 0 0 0 0
12-01-2020 13.7 (15:00) 3.6 (00:00) 8.6 3.61 (15:40) 1.67 (16:20) 0 0 0 0 0
11-01-2020 12.9 (14:50) 3 (00:00) 7.9 3.89 (17:50) 2.22 (01:10) 0 0 0 0 0
10-01-2020 11.1 (14:00) 5.2 (00:00) 8.2 6.94 (15:10) 2.78 (15:10) 0 0 0 0 0
09-01-2020 14.9 (15:30) 4.2 (00:00) 9.5 6.39 (16:50) 2.78 (16:40) 0 0 0 0 0
08-01-2020 19.1 (15:00) 6.3 (00:00) 12.7 3.89 (17:30) 1.94 (17:30) 0 0 0 0 0
07-01-2020 18.2 (15:50) 4.3 (00:00) 11.3 4.44 (17:00) 2.5 (17:10) 0 0 0 0 0
06-01-2020 14.3 (16:00) 3.8 (00:00) 9.1 3.89 (14:30) 2.22 (14:30) 0 0 0 0 0
05-01-2020 13.6 (15:10) 4.9 (00:00) 9.3 6.67 (02:20) 2.78 (02:20) 0 0 0 0 0
04-01-2020 14.1 (15:20) 2.9 (00:00) 8.5 5.28 (16:30) 2.78 (16:40) 0 0 0 0 0
03-01-2020 12.8 (15:50) 3.8 (00:00) 8.3 4.72 (16:00) 2.78 (16:00) 0 0 0 0 0
02-01-2020 15.4 (15:30) 2.4 (00:00) 8.9 3.33 (16:00) 1.67 (16:00) 0 0 0 0 0
01-01-2020 16.4 (16:00) 4.5 (00:00) 10.4 3.33 (15:30) 2.22 (15:30) 0 0 0 0 0
31-12-2019 15.2 (15:30) 5.1 (00:00) 10.1 4.44 (14:10) 1.67 (15:10) 0 0 0 0 0
30-12-2019 -- (--) -- (--) -- -- (--) -- (--) -- 0 0 0 --
29-12-2019 15.5 (15:00) 6.3 (00:00) 10.9 4.72 (01:50) 2.22 (11:10) 0 0 0 0 0
28-12-2019 19 (14:40) 9.3 (00:00) 14.2 8.61 (12:20) 4.17 (12:50) 0 0 0 0 0

Gráficas

Temp. máximas Temp. mínimas Temp. medias Precipitaciones Rachas de viento máximas Velocidades máximas media en intervalos de 10 minutos

Datos horarios

Fecha y hora oficial Temperatura (ºC) Velocidad del viento (km/h) Dirección del viento Racha (km/h) Dirección de racha Precipitación (mm) Presión (hPa) Tendencia (hPa) Humedad (%)
2020-01-26 23:00:00 -- -- -- -- -- -- -- -- --
2020-01-26 22:00:00 5.1 4 Este 7 Este 0 -- -- 85
2020-01-26 21:00:00 5.7 4 Este 8 Este 0 -- -- 82
2020-01-26 20:00:00 6.6 2 Nordeste 5 Nordeste 0 -- -- 78
2020-01-26 19:00:00 7.9 2 Noroeste 17 Noroeste 0 -- -- 72
2020-01-26 18:00:00 10.3 9 Noroeste 21 Noroeste 0 -- -- 64
2020-01-26 17:00:00 10.9 13 Noroeste 21 Noroeste 0 -- -- 64
2020-01-26 16:00:00 9.2 5 Norte 15 Norte 0 -- -- 70
2020-01-26 15:00:00 9.3 3 Norte 14 Noroeste 0 -- -- 69
2020-01-26 14:00:00 9.9 6 Noroeste 15 Noroeste 0 -- -- 74
2020-01-26 13:00:00 10.2 8 Noroeste 17 Oeste 0 -- -- 73
2020-01-26 12:00:00 9.5 3 Noroeste 10 Oeste 0 -- -- 79
2020-01-26 11:00:00 8.7 0 Calma 10 Noroeste 0 -- -- 88
2020-01-26 10:00:00 6.8 0 Calma 5 Noroeste 0 -- -- 96
2020-01-26 09:00:00 6.3 2 Noroeste 8 Noroeste 0 -- -- 96
2020-01-26 08:00:00 6.3 0 Calma 4 Oeste 0 -- -- 96
2020-01-26 07:00:00 6.1 0 Calma 5 Noroeste 0 -- -- 96
2020-01-26 06:00:00 6.7 0 Calma 4 Oeste 0 -- -- 96
2020-01-26 05:00:00 7 4 Oeste 10 Noroeste 0 -- -- 96
2020-01-26 04:00:00 7.1 0 Calma 9 Noroeste 0 -- -- 96
2020-01-26 03:00:00 7.1 2 Oeste 6 Oeste 0 -- -- 96
2020-01-26 02:00:00 7 0 Calma 5 Noroeste 0 -- -- 95
2020-01-26 01:00:00 6.9 0 Calma -- -- 0 -- -- 95
2020-01-26 00:00:00 6.7 0 Calma -- -- 0 -- -- 95
2020-01-25 23:00:00 6.6 0 Calma 3 Este 0 -- -- 94
2020-01-25 22:00:00 6.6 0 Calma 10 Sudoeste 0 -- -- 94
2020-01-25 21:00:00 6.5 0 Calma 5 Sur 0 -- -- 94
2020-01-25 20:00:00 6.7 0 Calma 5 Sur 0 -- -- 94
2020-01-25 19:00:00 7 0 Calma 18 Sur 0.2 -- -- 93
2020-01-25 18:00:00 7.2 7 Sur 25 Sur 0 -- -- 88
2020-01-25 17:00:00 7.8 12 Sur 22 Sur 0 -- -- 90
2020-01-25 16:00:00 7 0 Calma 26 Sudoeste 2 -- -- 94
2020-01-25 15:00:00 7.6 12 Sur 29 Sur 0.8 -- -- 93
2020-01-25 14:00:00 7.5 14 Sur 32 Sur 2.4 -- -- 91
2020-01-25 13:00:00 8 15 Sur 30 Sur 1 -- -- 90
2020-01-25 12:00:00 7.3 12 Sur 32 Sur 2.2 -- -- 93
2020-01-25 11:00:00 7.9 16 Sur 36 Sudoeste 0.8 -- -- 91
2020-01-25 10:00:00 7.9 16 Sur 36 Sur 0 -- -- 88
2020-01-25 09:00:00 7.6 19 Sur 41 Sur 1 -- -- 88
2020-01-25 08:00:00 7.5 17 Sur 39 Sur 0.8 -- -- 89
2020-01-25 07:00:00 7.2 11 Sur 40 Sur 0.8 -- -- 94
2020-01-25 06:00:00 6.8 2 Sudoeste 35 Sudoeste 1.4 -- -- 92
2020-01-25 05:00:00 7.4 14 Sur 28 Sur 1.2 -- -- 93
2020-01-25 04:00:00 7.7 0 Calma 15 Sudeste 0.6 -- -- 92
2020-01-25 03:00:00 8 3 Sur 14 Este 0.2 -- -- 92
2020-01-25 02:00:00 7.7 0 Calma 8 Sudoeste 0.2 -- -- 92
2020-01-25 01:00:00 7.5 4 Sur 25 Sudoeste 0.2 -- -- 91
2020-01-25 00:00:00 7.9 8 Sur 28 Sur 0 -- -- 90
2020-01-24 23:00:00 8.1 7 Sur 26 Sur 0.2 -- -- 91
2020-01-24 22:00:00 8.2 13 Sur 32 Sur 2.2 -- -- 93
2020-01-24 21:00:00 8.3 13 Sur 29 Sur 0.4 -- -- 90
2020-01-24 20:00:00 8 10 Sur 27 Sur 0.2 -- -- 90
2020-01-24 19:00:00 7.5 8 Sur 24 Sur 1.8 -- -- 91
2020-01-24 18:00:00 7.5 8 Sur 21 Sur 3.6 -- -- 92
2020-01-24 17:00:00 8.1 6 Sur 17 Sur 1.2 -- -- 89
2020-01-24 16:00:00 8.6 4 Sur 21 Sur 0.6 -- -- 88
2020-01-24 15:00:00 8.7 8 Sur 28 Sudoeste 0.2 -- -- 84
2020-01-24 14:00:00 9.6 9 Sur 23 Sudeste 0 -- -- 79
2020-01-24 13:00:00 9.6 10 Sur 22 Sudeste 0 -- -- 80
2020-01-24 12:00:00 9.3 8 Sudeste 22 Sur 0 -- -- 82
2020-01-24 11:00:00 9.1 7 Sur 16 Sur 0 -- -- 84
2020-01-24 10:00:00 7.9 5 Sudeste 14 Sudeste 0 -- -- 90
2020-01-24 09:00:00 7.2 0 Calma 10 Sudoeste 0 -- -- 91
2020-01-24 08:00:00 7.3 4 Sur 17 Sur 0 -- -- 89
2020-01-24 07:00:00 7.3 5 Sur 16 Sur 0 -- -- 91
2020-01-24 06:00:00 7.3 8 Sur 21 Sur 0 -- -- 90
2020-01-24 05:00:00 7.2 9 Sur 19 Sudoeste 0 -- -- 88
2020-01-24 04:00:00 7 5 Sur 18 Sur 0.2 -- -- 91
2020-01-24 03:00:00 6.8 5 Sur 16 Sur 0 -- -- 91
2020-01-24 02:00:00 6.8 9 Sur 21 Sur 0 -- -- 90
2020-01-24 01:00:00 6.6 6 Sur 14 Sur 0.2 -- -- 94
2020-01-24 00:00:00 6.5 7 Sur 22 Sur 0.6 -- -- 93
2020-01-23 23:00:00 6.3 10 Sur 23 Sudoeste 0.6 -- -- 94
2020-01-23 22:00:00 6.3 4 Oeste 14 Sur 1 -- -- 95
2020-01-23 21:00:00 6 4 Sudeste 19 Sudeste 2.4 -- -- 94
2020-01-23 20:00:00 6.7 3 Oeste 13 Nordeste 4.6 -- -- 95
2020-01-23 19:00:00 6.8 0 Calma 8 Norte 3.4 -- -- 94
2020-01-23 18:00:00 7.1 3 Norte 11 Nordeste 4.4 -- -- 91
2020-01-23 17:00:00 7.9 6 Este 22 Sudeste 0.6 -- -- 87
2020-01-23 16:00:00 10.4 9 Sur 24 Sur 0 -- -- 76
2020-01-23 15:00:00 10.4 10 Sur 32 Sur 0 -- -- 74
2020-01-23 14:00:00 10.1 10 Sur 27 Sur 0 -- -- 75
2020-01-23 13:00:00 10.3 13 Sur 33 Sur 0 -- -- 77
2020-01-23 12:00:00 9.2 9 Sur 30 Sur 0.2 -- -- 86
2020-01-23 11:00:00 7.3 9 Sur 23 Sur 0 -- -- 89
2020-01-23 10:00:00 7.3 12 Sur 25 Sur 0 -- -- 87
2020-01-23 09:00:00 6.9 9 Sur 27 Sur 0.6 -- -- 88
2020-01-23 08:00:00 7.4 10 Sur 26 Sur 0 -- -- 86
2020-01-23 07:00:00 7.2 12 Sur 24 Sur 0 -- -- 86
2020-01-23 06:00:00 6.8 9 Sur 28 Sur 0.2 -- -- 90
2020-01-23 05:00:00 6.3 15 Sur 26 Sur 0.2 -- -- 92
2020-01-23 04:00:00 6.3 11 Sur 21 Sur 0.8 -- -- 92
2020-01-23 03:00:00 6.5 8 Sur 29 Sur 0.4 -- -- 90
2020-01-23 02:00:00 6.2 12 Sur 30 Sur 0 -- -- 90
2020-01-23 01:00:00 6.2 8 Sur 32 Sur 0 -- -- 90
2020-01-23 00:00:00 5.9 9 Sur 21 Sur 0.2 -- -- 92
2020-01-22 23:00:00 5.7 7 Sur 18 Sur 1 -- -- 90
2020-01-22 22:00:00 6 5 Sur 15 Sur 0.4 -- -- 90
2020-01-22 21:00:00 6.9 5 Sur 13 Sudeste 0 -- -- 81
2020-01-22 20:00:00 6.9 5 Sudeste 16 Sur 0 -- -- 79
2020-01-22 19:00:00 6.9 7 Sur 17 Sur 0 -- -- 81
2020-01-22 18:00:00 7.3 6 Sur 17 Sur 0 -- -- 79
2020-01-22 17:00:00 8.4 6 Sur 18 Sur 0 -- -- 77
2020-01-22 16:00:00 8.5 7 Sur 20 Sur 0 -- -- 74
2020-01-22 15:00:00 7 9 Sur 27 Sur 0 -- -- 80
2020-01-22 14:00:00 8.4 9 Sur 18 Sur 0.2 -- -- 78
2020-01-22 13:00:00 5.8 0 Calma 15 Sur 0.4 -- -- 91
2020-01-22 12:00:00 5.8 0 Calma 6 Sudoeste 0 -- -- 91
2020-01-22 11:00:00 5.5 0 Calma 19 Este 0.4 -- -- 89
2020-01-22 10:00:00 5.1 0 Calma 9 Este 0.2 -- -- 92
2020-01-22 09:00:00 4.7 0 Calma 15 Sur 0.4 -- -- 92
2020-01-22 08:00:00 4.7 5 Sur 17 Sur 0.6 -- -- 92
2020-01-22 07:00:00 4.7 5 Sur 17 Sur 0 -- -- 94
2020-01-22 06:00:00 4.6 0 Calma 10 Sur 0.2 -- -- 93
2020-01-22 05:00:00 4.2 2 Sur 18 Sudeste 2.6 -- -- 93
2020-01-22 04:00:00 4.3 5 Sur 14 Sudeste 3.2 -- -- 93
2020-01-22 03:00:00 4.7 6 Sudeste 17 Sudeste 1.6 -- -- 90
2020-01-22 02:00:00 5.3 7 Sudeste 18 Sur 0 -- -- 86
2020-01-22 01:00:00 6 7 Sur 17 Sudeste 0 -- -- 88
2020-01-22 00:00:00 6.1 5 Sur 12 Sur 0 -- -- 87
2020-01-21 23:00:00 6.2 3 Sudeste 19 Sur 0.2 -- -- 83
2020-01-21 22:00:00 6.1 8 Sur 22 Sur 0 -- -- 82
2020-01-21 21:00:00 6.2 0 Calma 4 Este 0.2 -- -- 88
2020-01-21 20:00:00 6.5 0 Calma 4 Noroeste 0 -- -- 84
2020-01-21 19:00:00 6.6 0 Calma 6 Sur 0 -- -- 84
2020-01-21 18:00:00 7 0 Calma 4 Nordeste 0 -- -- 81
2020-01-21 17:00:00 7.2 0 Calma 6 Norte 0 -- -- 79
2020-01-21 16:00:00 7.6 0 Calma 8 Noroeste 0 -- -- 76
2020-01-21 15:00:00 8.6 4 Noroeste 9 Noroeste 0 -- -- 72
2020-01-21 14:00:00 7.4 4 Norte 11 Norte 0 -- -- 78
2020-01-21 13:00:00 5.9 4 Norte 15 Nordeste 0 -- -- 81
2020-01-21 12:00:00 5.6 13 Nordeste 23 Nordeste 0 -- -- 80
2020-01-21 11:00:00 4.8 5 Norte 12 Nordeste 0 -- -- 84
2020-01-21 10:00:00 2.6 0 Calma 4 Nordeste 0 -- -- 94
2020-01-21 09:00:00 1.7 2 Este 6 Nordeste 0 -- -- 94
2020-01-21 08:00:00 2 0 Calma 5 Sudoeste 0 -- -- 93
2020-01-21 07:00:00 2.1 0 Calma 5 Nordeste 0 -- -- 92
2020-01-21 06:00:00 2 0 Calma 3 Norte 0 -- -- 93
2020-01-21 05:00:00 2.1 0 Calma 4 Nordeste 0 -- -- 93
2020-01-21 04:00:00 2.3 0 Calma 4 Noroeste 0 -- -- 92
2020-01-21 03:00:00 2.8 0 Calma 11 Nordeste 0 -- -- 89
2020-01-21 02:00:00 3.3 3 Norte 9 Norte 0 -- -- 91
2020-01-21 01:00:00 3 0 Calma 4 Norte 0 -- -- 91
2020-01-21 00:00:00 3.4 0 Calma 9 Este 0 -- -- 91
2020-01-20 23:00:00 3.5 0 Calma 7 Este 0 -- -- 92
2020-01-20 22:00:00 3 0 Calma 5 Este 0 -- -- 94
2020-01-20 21:00:00 2.8 0 Calma -- -- 0.2 -- -- 94
2020-01-20 20:00:00 2.7 0 Calma 2 Nordeste 0 -- -- 95
2020-01-20 19:00:00 2.1 0 Calma 4 Nordeste 0 -- -- 94
2020-01-20 18:00:00 2.3 0 Calma 8 Nordeste 0.2 -- -- 94
2020-01-20 17:00:00 2 3 Nordeste 16 Nordeste 1.8 -- -- 94
2020-01-20 16:00:00 2.5 0 Calma 7 Norte 0.2 -- -- 93
2020-01-20 15:00:00 2.1 2 Nordeste 16 Norte 0.8 -- -- 92
2020-01-20 14:00:00 3.1 11 Norte 21 Nordeste 0 -- -- 83
2020-01-20 13:00:00 3.8 12 Nordeste 24 Nordeste 0 -- -- 76
2020-01-20 12:00:00 2.3 11 Nordeste 24 Norte 0 -- -- 81
2020-01-20 11:00:00 2.1 10 Norte 19 Nordeste 0 -- -- 82
2020-01-20 10:00:00 0.9 8 Nordeste 21 Norte 0 -- -- 86
2020-01-20 09:00:00 0.5 8 Nordeste 23 Nordeste 0 -- -- 86
2020-01-20 08:00:00 1 12 Nordeste 31 Nordeste 0 -- -- 86
2020-01-20 07:00:00 1.4 12 Nordeste 31 Nordeste 0 -- -- 87
2020-01-20 06:00:00 1.8 7 Nordeste 18 Norte 0 -- -- 87
2020-01-20 05:00:00 2.1 5 Norte 24 Nordeste 0 -- -- 86
2020-01-20 04:00:00 2.3 10 Nordeste 20 Norte 0 -- -- 88
2020-01-20 03:00:00 2.4 14 Nordeste 27 Nordeste 0.2 -- -- 89
2020-01-20 02:00:00 2.7 3 Noroeste 18 Nordeste 0 -- -- 88
2020-01-20 01:00:00 3 2 Oeste 30 Nordeste 0 -- -- 89
2020-01-20 00:00:00 3.2 5 Nordeste 33 Nordeste 0 -- -- 88
2020-01-19 23:00:00 3.6 15 Nordeste 35 Nordeste 0 -- -- 87
2020-01-19 22:00:00 4.2 8 Nordeste 30 Norte 0 -- -- 86
2020-01-19 21:00:00 4.9 10 Norte 37 Norte 0 -- -- 84
2020-01-19 20:00:00 5.1 5 Norte 21 Nordeste 0 -- -- 89
2020-01-19 19:00:00 5.2 7 Norte 19 Norte 0.2 -- -- 91
2020-01-19 18:00:00 5.5 8 Norte 31 Norte 0.4 -- -- 89
2020-01-19 17:00:00 7 9 Norte 23 Nordeste 0 -- -- 79
2020-01-19 16:00:00 6.5 8 Norte 24 Norte 0.2 -- -- 88
2020-01-19 15:00:00 6.9 4 Noroeste 24 Norte 0.8 -- -- 87
2020-01-19 14:00:00 8.4 8 Noroeste 26 Oeste 0 -- -- 77
2020-01-19 13:00:00 7.6 5 Noroeste 19 Norte 0 -- -- 83
2020-01-19 12:00:00 7.1 6 Norte 17 Norte 0 -- -- 89
2020-01-19 11:00:00 5.8 5 Norte 22 Noroeste 0 -- -- 94
2020-01-19 10:00:00 5.6 9 Noroeste 31 Noroeste 0.2 -- -- 94
2020-01-19 09:00:00 5.5 12 Noroeste 31 Noroeste 0 -- -- 92
2020-01-19 08:00:00 5.5 14 Noroeste 33 Noroeste 0 -- -- 92
2020-01-19 07:00:00 6.3 13 Noroeste 31 Oeste 0 -- -- 91
2020-01-19 06:00:00 7 12 Noroeste 33 Oeste 0 -- -- 92
2020-01-19 05:00:00 7.2 14 Noroeste 34 Oeste 0 -- -- 94
2020-01-19 04:00:00 7.1 14 Oeste 28 Noroeste 0 -- -- 96
2020-01-19 03:00:00 7.9 6 Oeste 30 Oeste 0 -- -- 96
2020-01-19 02:00:00 8.9 17 Oeste 48 Noroeste 0.4 -- -- 96
2020-01-19 01:00:00 11.4 12 Oeste 26 Noroeste 0.6 -- -- 96
2020-01-19 00:00:00 11.8 9 Oeste 20 Noroeste 0.8 -- -- 96
2020-01-18 23:00:00 11.7 8 Oeste 21 Oeste 0.4 -- -- 95
2020-01-18 22:00:00 11.8 3 Oeste 15 Oeste 0.4 -- -- 95
2020-01-18 21:00:00 11.7 4 Sudoeste 12 Sudoeste 0.4 -- -- 95
2020-01-18 20:00:00 11.4 3 Este 23 Oeste 0.2 -- -- 94
2020-01-18 19:00:00 11.3 2 Sudoeste 15 Oeste 0.2 -- -- 93
2020-01-18 18:00:00 11.3 3 Sur 10 Sudoeste 1.6 -- -- 92
2020-01-18 17:00:00 11.8 0 Calma 23 Oeste 0.2 -- -- 91
2020-01-18 16:00:00 12.5 7 Sur 24 Sur 0 -- -- 81
2020-01-18 15:00:00 12.5 4 Sudeste 31 Sudoeste 0 -- -- 79
2020-01-18 14:00:00 13.1 9 Sur 29 Sudoeste 0 -- -- 68
2020-01-18 13:00:00 13 8 Sudoeste 18 Oeste 0.2 -- -- 64
2020-01-18 12:00:00 11.2 4 Oeste 10 Sudoeste 0 -- -- 61
2020-01-18 11:00:00 10.2 0 Calma 5 Este 0 -- -- 66
2020-01-18 10:00:00 9.1 0 Calma 7 Oeste 0 -- -- 66
2020-01-18 09:00:00 8.4 0 Calma 5 Sur 0 -- -- 64
2020-01-18 08:00:00 7.7 0 Calma 5 Sudeste 0 -- -- 66
2020-01-18 07:00:00 7.1 6 Sudeste 8 Sudeste 0 -- -- 66
2020-01-18 06:00:00 7.1 2 Este 6 Este 0 -- -- 65
2020-01-18 05:00:00 6.8 2 Este 9 Este 0 -- -- 71
2020-01-18 04:00:00 6.2 6 Este 11 Este 0 -- -- 74
2020-01-18 03:00:00 5.6 7 Este 9 Este 0 -- -- 78
2020-01-18 02:00:00 6.3 0 Calma 10 Sudeste 0 -- -- 81
2020-01-18 01:00:00 6.9 0 Calma 6 Sudeste 0 -- -- 86
2020-01-18 00:00:00 7.3 3 Sudeste 6 Este 0 -- -- 84
2020-01-17 23:00:00 8 0 Calma 3 Norte 0 -- -- 85
2020-01-17 22:00:00 8.4 0 Calma 6 Este 0 -- -- 85
2020-01-17 21:00:00 8.8 4 Este 8 Este 0 -- -- 84
2020-01-17 20:00:00 10.1 4 Nordeste 9 Nordeste 0 -- -- 83
2020-01-17 19:00:00 11.3 4 Norte 9 Nordeste 0 -- -- 78
2020-01-17 18:00:00 13.5 0 Calma 12 Oeste 0 -- -- 67
2020-01-17 17:00:00 14.3 5 Noroeste 18 Noroeste 0 -- -- 66
2020-01-17 16:00:00 14.2 6 Noroeste 14 Oeste 0 -- -- 64
2020-01-17 15:00:00 14.1 4 Noroeste 15 Oeste 0 -- -- 68
2020-01-17 14:00:00 13.8 5 Noroeste 15 Noroeste 0 -- -- 72
2020-01-17 13:00:00 13.8 6 Norte 11 Noroeste 0 -- -- 65
2020-01-17 12:00:00 12.8 4 Noroeste 8 Noroeste 0 -- -- 69
2020-01-17 11:00:00 10.7 0 Calma 4 Oeste 0 -- -- 50
2020-01-17 10:00:00 8.4 0 Calma 7 Este 0 -- -- 54
2020-01-17 09:00:00 7.4 4 Este 8 Sudeste 0 -- -- 51
2020-01-17 08:00:00 6.6 5 Este 8 Este 0 -- -- 53
2020-01-17 07:00:00 6.9 5 Este 8 Sudeste 0 -- -- 53
2020-01-17 06:00:00 7 4 Sudeste 8 Sudeste 0 -- -- 53
2020-01-17 05:00:00 6.9 4 Este 9 Sudeste 0 -- -- 53
2020-01-17 04:00:00 6.6 2 Sur 8 Este 0 -- -- 54
2020-01-17 03:00:00 6 3 Este 8 Este 0 -- -- 61
2020-01-17 02:00:00 6.4 3 Este 9 Este 0 -- -- 65
2020-01-17 01:00:00 6.4 0 Calma 8 Este 0 -- -- 65
2020-01-17 00:00:00 7 2 Este 4 Este 0 -- -- 60
2020-01-16 23:00:00 7.2 0 Calma 6 Este 0 -- -- 58
2020-01-16 22:00:00 7.6 3 Este 8 Este 0 -- -- 57
2020-01-16 21:00:00 8.8 2 Norte 4 Norte 0 -- -- 58
2020-01-16 20:00:00 9.8 0 Calma 10 Sudoeste 0 -- -- 53
2020-01-16 19:00:00 10.9 6 Sur 13 Sur 0 -- -- 51
2020-01-16 18:00:00 13 3 Sur 19 Sudoeste 0 -- -- 54
2020-01-16 17:00:00 14.8 7 Sur 21 Sudoeste 0 -- -- 47
2020-01-16 16:00:00 15.6 7 Sudoeste 18 Sudeste 0 -- -- 44
2020-01-16 15:00:00 16.4 5 Sur 17 Sudoeste 0 -- -- 38
2020-01-16 14:00:00 15.7 8 Noroeste 18 Oeste 0 -- -- 41
2020-01-16 13:00:00 14.5 5 Noroeste 8 Oeste 0 -- -- 48
2020-01-16 12:00:00 13.2 2 Oeste 5 Sudoeste 0 -- -- 46
2020-01-16 11:00:00 11.2 0 Calma 5 Oeste 0 -- -- 45
2020-01-16 10:00:00 6.5 0 Calma 5 Este 0 -- -- 63
2020-01-16 09:00:00 5.8 4 Este 9 Este 0 -- -- 62
2020-01-16 08:00:00 5.1 0 Calma 4 Sudoeste 0 -- -- 63
2020-01-16 07:00:00 5.6 0 Calma 4 Oeste 0 -- -- 62
2020-01-16 06:00:00 5.8 2 Este 9 Este 0 -- -- 58
2020-01-16 05:00:00 5.7 5 Este 8 Este 0 -- -- 63
2020-01-16 04:00:00 5.8 0 Calma 6 Este 0 -- -- 64
2020-01-16 03:00:00 6.1 6 Este 8 Este 0 -- -- 64
2020-01-16 02:00:00 6.2 0 Calma 3 Este 0 -- -- 64
2020-01-16 01:00:00 6.9 0 Calma 5 Este 0 -- -- 61
2020-01-16 00:00:00 7.6 4 Este 5 Este 0 -- -- 56
2020-01-15 23:00:00 7.7 0 Calma 4 Sudoeste 0 -- -- 58
2020-01-15 22:00:00 7.9 0 Calma 5 Este 0 -- -- 55
2020-01-15 21:00:00 8.4 3 Este 7 Este 0 -- -- 55
2020-01-15 20:00:00 9.7 4 Sudeste 6 Este 0 -- -- 52
2020-01-15 19:00:00 11.2 0 Calma 13 Oeste 0 -- -- 46
2020-01-15 18:00:00 13.6 7 Noroeste 19 Noroeste 0 -- -- 36
2020-01-15 17:00:00 15.1 5 Noroeste 24 Noroeste 0 -- -- 33
2020-01-15 16:00:00 15.4 10 Noroeste 24 Noroeste 0 -- -- 32
2020-01-15 15:00:00 15.5 7 Sur 24 Sudoeste 0 -- -- 37
2020-01-15 14:00:00 15.2 6 Sur 22 Noroeste 0 -- -- 38
2020-01-15 13:00:00 14.1 6 Sudoeste 19 Sudoeste 0 -- -- 43
2020-01-15 12:00:00 13.2 3 Sudoeste 6 Oeste 0 -- -- 45
2020-01-15 11:00:00 11.2 0 Calma 6 Norte 0 -- -- 54
2020-01-15 10:00:00 6.9 2 Norte 5 Este 0 -- -- 63
2020-01-15 09:00:00 5.1 2 Sudeste 9 Sudeste 0 -- -- 65
2020-01-15 08:00:00 5.1 0 Calma 6 Este 0 -- -- 68
2020-01-15 07:00:00 4.9 5 Sudeste 8 Sudeste 0 -- -- 71
2020-01-15 06:00:00 4.5 3 Este 6 Este 0 -- -- 79
2020-01-15 05:00:00 4.6 2 Sudeste 6 Este 0 -- -- 79
2020-01-15 04:00:00 4.5 3 Sudeste 7 Este 0 -- -- 81
2020-01-15 03:00:00 4.9 4 Sudeste 5 Sudeste 0 -- -- 80
2020-01-15 02:00:00 5.2 0 Calma 4 Sudeste 0 -- -- 80
2020-01-15 01:00:00 5.3 2 Sudeste 6 Este 0 -- -- 82
2020-01-15 00:00:00 5.3 3 Sudeste 5 Este 0 -- -- 82
2020-01-14 23:00:00 5.5 2 Este 6 Este 0 -- -- 82
2020-01-14 22:00:00 5.8 3 Este 5 Este 0 -- -- 78
2020-01-14 21:00:00 6.3 3 Este 5 Este 0 -- -- 76
2020-01-14 20:00:00 7.4 2 Oeste 7 Oeste 0 -- -- 75
2020-01-14 19:00:00 8.3 0 Calma 4 Norte 0 -- -- 67
2020-01-14 18:00:00 10.3 0 Calma 8 Noroeste 0 -- -- 59
2020-01-14 17:00:00 11.5 4 Noroeste 13 Noroeste 0 -- -- 55
2020-01-14 16:00:00 11.5 4 Noroeste 23 Noroeste 0 -- -- 52
2020-01-14 15:00:00 11.3 9 Noroeste 22 Noroeste 0 -- -- 60
2020-01-14 14:00:00 11.5 4 Oeste 15 Oeste 0 -- -- 59
2020-01-14 13:00:00 10.6 5 Sudoeste 16 Oeste 0 -- -- 61
2020-01-14 12:00:00 9.1 2 Sudoeste 7 Sudoeste 0 -- -- 68
2020-01-14 11:00:00 7.4 0 Calma 6 Sudeste 0 -- -- 79
2020-01-14 10:00:00 4.2 3 Sudeste 6 Este 0 -- -- 88
2020-01-14 09:00:00 2.9 4 Este 6 Este 0 -- -- 89
2020-01-14 08:00:00 2.7 4 Este 6 Este 0 -- -- 87
2020-01-14 07:00:00 3 4 Sudeste 6 Este 0 -- -- 83
2020-01-14 06:00:00 2.8 4 Este 5 Este 0 -- -- 81
2020-01-14 05:00:00 3 4 Este 7 Este 0 -- -- 80
2020-01-14 04:00:00 3.6 4 Este 6 Este 0 -- -- 81
2020-01-14 03:00:00 3.5 3 Este 5 Este 0 -- -- 84
2020-01-14 02:00:00 3.7 3 Este 5 Este 0 -- -- 88
2020-01-14 01:00:00 4.1 0 Calma 5 Norte 0 -- -- 89
2020-01-14 00:00:00 4.3 4 Este 8 Este 0 -- -- 87
2020-01-13 23:00:00 4.9 3 Este 5 Este 0 -- -- 85
2020-01-13 22:00:00 5.8 3 Este 4 Este 0 -- -- 84
2020-01-13 21:00:00 6.6 0 Calma 5 Sudoeste 0 -- -- 86
2020-01-13 20:00:00 7.9 2 Oeste 12 Oeste 0 -- -- 84
2020-01-13 19:00:00 9.1 7 Noroeste 19 Oeste 0 -- -- 75
2020-01-13 18:00:00 11.5 9 Noroeste 19 Noroeste 0 -- -- 67
2020-01-13 17:00:00 13.5 5 Noroeste 11 Oeste 0 -- -- 43
2020-01-13 16:00:00 13.9 6 Noroeste 15 Oeste 0 -- -- 40
2020-01-13 15:00:00 14.1 4 Noroeste 15 Norte 0 -- -- 39
2020-01-13 14:00:00 13.5 6 Noroeste 13 Oeste 0 -- -- 44
2020-01-13 13:00:00 12.3 4 Sudoeste 11 Oeste 0 -- -- 51
2020-01-13 12:00:00 10.1 6 Oeste 11 Oeste 0 -- -- 57
2020-01-13 11:00:00 9.1 0 Calma 4 Oeste 0 -- -- 53
2020-01-13 10:00:00 4.4 0 Calma 4 Sur 0 -- -- 76
2020-01-13 09:00:00 3.5 0 Calma 4 Noroeste 0 -- -- 82
2020-01-13 08:00:00 3.7 0 Calma 5 Oeste 0 -- -- 81
2020-01-13 07:00:00 3.4 0 Calma 5 Sudoeste 0 -- -- 80
2020-01-13 06:00:00 3.6 0 Calma 5 Oeste 0 -- -- 81
2020-01-13 05:00:00 3.9 0 Calma 4 Noroeste 0 -- -- 84
2020-01-13 04:00:00 3.9 0 Calma 4 Noroeste 0 -- -- 84
2020-01-13 03:00:00 3.6 2 Este 6 Este 0 -- -- 80
2020-01-13 02:00:00 3.6 0 Calma 5 Este 0 -- -- 79
2020-01-13 01:00:00 4 4 Este 6 Este 0 -- -- 79
2020-01-13 00:00:00 4.5 0 Calma 4 Este 0 -- -- 79
2020-01-12 23:00:00 4.9 0 Calma 4 Este 0 -- -- 84
2020-01-12 22:00:00 5.6 0 Calma 5 Sudeste 0 -- -- 84
2020-01-12 21:00:00 6.1 3 Sudeste 7 Norte 0 -- -- 74
2020-01-12 20:00:00 7.8 4 Norte 8 Norte 0 -- -- 66
2020-01-12 19:00:00 9.5 3 Norte 9 Norte 0 -- -- 60
2020-01-12 18:00:00 12.3 3 Norte 6 Norte 0 -- -- 52
2020-01-12 17:00:00 13.2 4 Norte 11 Nordeste 0 -- -- 48
2020-01-12 16:00:00 13.4 4 Norte 13 Nordeste 0 -- -- 47
2020-01-12 15:00:00 13.7 4 Norte 9 Noroeste 0 -- -- 48
2020-01-12 14:00:00 13 2 Nordeste 9 Nordeste 0 -- -- 52
2020-01-12 13:00:00 12 4 Noroeste 9 Noroeste 0 -- -- 58
2020-01-12 12:00:00 10.6 2 Oeste 5 Noroeste 0 -- -- 68
2020-01-12 11:00:00 9 0 Calma 5 Este 0 -- -- 69
2020-01-12 10:00:00 4.8 2 Este 7 Este 0 -- -- 84
2020-01-12 09:00:00 3.6 4 Este 6 Este 0 -- -- 84
2020-01-12 08:00:00 3.6 2 Este 6 Este 0 -- -- 86
2020-01-12 07:00:00 3.7 0 Calma 2 Este 0 -- -- 86
2020-01-12 06:00:00 4.4 0 Calma 3 Sudeste 0 -- -- 86
2020-01-12 05:00:00 4.6 0 Calma 3 Este 0 -- -- 85
2020-01-12 04:00:00 4.8 0 Calma 5 Sur 0 -- -- 85
2020-01-12 03:00:00 5.4 2 Sudeste 6 Sudeste 0 -- -- 82
2020-01-12 02:00:00 4.9 0 Calma 8 Sur 0 -- -- 86
2020-01-12 01:00:00 5.3 0 Calma 6 Sudeste 0 -- -- 87
2020-01-12 00:00:00 5.3 0 Calma 4 Sudeste 0 -- -- 85
2020-01-11 23:00:00 5.7 0 Calma 5 Este 0 -- -- 85
2020-01-11 22:00:00 6.2 3 Este 4 Este 0 -- -- 82
2020-01-11 21:00:00 7.5 0 Calma 5 Oeste 0 -- -- 79
2020-01-11 20:00:00 8.9 3 Noroeste 6 Noroeste 0 -- -- 71
2020-01-11 19:00:00 9.5 3 Oeste 12 Oeste 0 -- -- 69
2020-01-11 18:00:00 10.2 7 Noroeste 14 Oeste 0 -- -- 72
2020-01-11 17:00:00 11 3 Noroeste 7 Noroeste 0 -- -- 68
2020-01-11 16:00:00 11.5 4 Noroeste 12 Oeste 0 -- -- 64
2020-01-11 15:00:00 12.8 4 Oeste 10 Sudoeste 0 -- -- 57
2020-01-11 14:00:00 12 3 Noroeste 13 Noroeste 0 -- -- 60
2020-01-11 13:00:00 10.6 2 Noroeste 9 Sudoeste 0 -- -- 66
2020-01-11 12:00:00 10.7 3 Oeste 5 Sudoeste 0 -- -- 68
2020-01-11 11:00:00 9.2 0 Calma 6 Este 0 -- -- 71
2020-01-11 10:00:00 5.8 2 Este 6 Este 0 -- -- 83
2020-01-11 09:00:00 4.3 2 Este 5 Este 0 -- -- 85
2020-01-11 08:00:00 3.4 0 Calma 6 Sur 0 -- -- 83
2020-01-11 07:00:00 3.5 2 Este 5 Este 0 -- -- 82
2020-01-11 06:00:00 3.4 0 Calma 6 Nordeste 0 -- -- 78
2020-01-11 05:00:00 3.2 2 Este 5 Este 0 -- -- 79
2020-01-11 04:00:00 3.7 2 Este 7 Norte 0 -- -- 75
2020-01-11 03:00:00 4.1 3 Norte 8 Nordeste 0 -- -- 73
2020-01-11 02:00:00 3.7 0 Calma 12 Norte 0 -- -- 75
2020-01-11 01:00:00 4.5 5 Nordeste 9 Norte 0 -- -- 71
2020-01-11 00:00:00 5.2 4 Nordeste 9 Este 0 -- -- 68
2020-01-10 23:00:00 5.7 3 Nordeste 12 Nordeste 0 -- -- 66
2020-01-10 22:00:00 5.9 4 Nordeste 17 Nordeste 0 -- -- 67
2020-01-10 21:00:00 6.4 5 Nordeste 15 Nordeste 0 -- -- 71
2020-01-10 20:00:00 6.8 5 Nordeste 16 Nordeste 0 -- -- 74
2020-01-10 19:00:00 7.2 4 Nordeste 12 Norte 0 -- -- 86
2020-01-10 18:00:00 8.2 4 Norte 14 Nordeste 0 -- -- 80
2020-01-10 17:00:00 9 6 Norte 17 Nordeste 0 -- -- 77
2020-01-10 16:00:00 9.6 8 Norte 25 Norte 0 -- -- 75
2020-01-10 15:00:00 10.4 9 Norte 21 Nordeste 0 -- -- 70
2020-01-10 14:00:00 11.1 6 Norte 19 Norte 0 -- -- 65
2020-01-10 13:00:00 10.4 6 Norte 15 Norte 0 -- -- 70
2020-01-10 12:00:00 9.3 3 Noroeste 7 Oeste 0 -- -- 82
2020-01-10 11:00:00 8 0 Calma 10 Norte 0 -- -- 90
2020-01-10 10:00:00 7.3 5 Norte 8 Nordeste 0 -- -- 91
2020-01-10 09:00:00 7 2 Nordeste 7 Norte 0 -- -- 92
2020-01-10 08:00:00 7 5 Norte 9 Norte 0 -- -- 91
2020-01-10 07:00:00 6.9 3 Norte 8 Norte 0 -- -- 90
2020-01-10 06:00:00 6.5 3 Norte 7 Este 0 -- -- 91
2020-01-10 05:00:00 5.6 2 Este 5 Este 0 -- -- 91
2020-01-10 04:00:00 5.4 2 Sudeste 5 Este 0 -- -- 92
2020-01-10 03:00:00 5.7 2 Este 6 Sudeste 0 -- -- 91
2020-01-10 02:00:00 5.8 4 Este 6 Este 0 -- -- 90
2020-01-10 01:00:00 6 3 Este 6 Este 0 -- -- 89
2020-01-10 00:00:00 5.3 4 Este 6 Este 0 -- -- 89
2020-01-09 23:00:00 6.6 2 Norte 6 Norte 0 -- -- 90
2020-01-09 22:00:00 6.8 0 Calma 6 Este 0 -- -- 88
2020-01-09 21:00:00 7.5 2 Este 4 Sudeste 0 -- -- 85
2020-01-09 20:00:00 8.4 0 Calma 13 Oeste 0 -- -- 82
2020-01-09 19:00:00 9.4 7 Oeste 12 Noroeste 0 -- -- 83
2020-01-09 18:00:00 11.1 4 Oeste 17 Oeste 0 -- -- 71
2020-01-09 17:00:00 12.9 9 Oeste 23 Noroeste 0 -- -- 62
2020-01-09 16:00:00 14.6 8 Noroeste 15 Oeste 0 -- -- 54
2020-01-09 15:00:00 14.4 3 Sudoeste 13 Noroeste 0 -- -- 54
2020-01-09 14:00:00 13.7 4 Noroeste 10 Noroeste 0 -- -- 55
2020-01-09 13:00:00 12 2 Oeste 7 Noroeste 0 -- -- 67
2020-01-09 12:00:00 10.3 3 Noroeste 6 Noroeste 0 -- -- 71
2020-01-09 11:00:00 8.9 3 Noroeste 5 Noroeste 0 -- -- 77
2020-01-09 10:00:00 5.3 0 Calma 4 Norte 0 -- -- 90
2020-01-09 09:00:00 4.2 2 Nordeste 5 Norte 0 -- -- 91
2020-01-09 08:00:00 4.5 2 Norte 4 Norte 0 -- -- 90
2020-01-09 07:00:00 4.4 0 Calma 4 Este 0 -- -- 90
2020-01-09 06:00:00 4.6 0 Calma 3 Nordeste 0 -- -- 90
2020-01-09 05:00:00 4.8 0 Calma 5 Nordeste 0 -- -- 89
2020-01-09 04:00:00 5.3 0 Calma 4 Nordeste 0 -- -- 90
2020-01-09 03:00:00 5.1 0 Calma 4 Nordeste 0 -- -- 91
2020-01-09 02:00:00 5.7 0 Calma 5 Nordeste 0 -- -- 90
2020-01-09 01:00:00 6.4 2 Nordeste 5 Norte 0 -- -- 86
2020-01-09 00:00:00 6.7 0 Calma 5 Este 0 -- -- 75
2020-01-08 23:00:00 7.7 3 Este 5 Este 0 -- -- 68
2020-01-08 22:00:00 8.6 3 Norte 8 Este 0 -- -- 72
2020-01-08 21:00:00 9.6 4 Nordeste 8 Este 0 -- -- 66
2020-01-08 20:00:00 11.1 4 Nordeste 5 Este 0 -- -- 56
2020-01-08 19:00:00 13 4 Este 9 Noroeste 0 -- -- 47
2020-01-08 18:00:00 16.1 5 Noroeste 14 Noroeste 0 -- -- 38
2020-01-08 17:00:00 18.6 4 Noroeste 10 Norte 0 -- -- 29
2020-01-08 16:00:00 18.7 5 Norte 10 Nordeste 0 -- -- 24
2020-01-08 15:00:00 19.1 4 Noroeste 13 Noroeste 0 -- -- 28
2020-01-08 14:00:00 18.4 3 Noroeste 8 Noroeste 0 -- -- 36
2020-01-08 13:00:00 17.2 3 Sudoeste 6 Sudoeste 0 -- -- 41
2020-01-08 12:00:00 15.9 0 Calma 3 Este 0 -- -- 40
2020-01-08 11:00:00 13.8 0 Calma 4 Este 0 -- -- 41
2020-01-08 10:00:00 8.6 4 Este 8 Este 0 -- -- 46
2020-01-08 09:00:00 6.9 3 Este 8 Este 0 -- -- 49
2020-01-08 08:00:00 6.6 5 Sudeste 8 Este 0 -- -- 51
2020-01-08 07:00:00 6.7 6 Este 8 Este 0 -- -- 51
2020-01-08 06:00:00 6.5 2 Este 8 Sudeste 0 -- -- 51
2020-01-08 05:00:00 6.8 6 Este 8 Este 0 -- -- 49
2020-01-08 04:00:00 6.6 5 Este 7 Sudeste 0 -- -- 49
2020-01-08 03:00:00 7 4 Este 6 Este 0 -- -- 48
2020-01-08 02:00:00 6.8 6 Este 8 Este 0 -- -- 49
2020-01-08 01:00:00 7.4 4 Este 6 Este 0 -- -- 49
2020-01-08 00:00:00 7.5 4 Este 7 Este 0 -- -- 57
2020-01-07 23:00:00 8 0 Calma 7 Sudeste 0 -- -- 64
2020-01-07 22:00:00 8.4 4 Este 8 Este 0 -- -- 67
2020-01-07 21:00:00 9.1 0 Calma 6 Este 0 -- -- 68
2020-01-07 20:00:00 10.1 0 Calma 5 Este 0 -- -- 65
2020-01-07 19:00:00 12 2 Sudoeste 9 Noroeste 0 -- -- 64
2020-01-07 18:00:00 14.5 3 Noroeste 15 Noroeste 0 -- -- 53
2020-01-07 17:00:00 17 8 Noroeste 16 Oeste 0 -- -- 40
2020-01-07 16:00:00 18 7 Noroeste 10 Noroeste 0 -- -- 35
2020-01-07 15:00:00 17.2 3 Noroeste 10 Noroeste 0 -- -- 34
2020-01-07 14:00:00 16.4 4 Sudoeste 10 Oeste 0 -- -- 35
2020-01-07 13:00:00 14.3 5 Oeste 12 Sudoeste 0 -- -- 40
2020-01-07 12:00:00 13.2 4 Oeste 9 Sudoeste 0 -- -- 39
2020-01-07 11:00:00 12.8 0 Calma 6 Noroeste 0 -- -- 36
2020-01-07 10:00:00 7.4 3 Sudeste 6 Sudeste 0 -- -- 47
2020-01-07 09:00:00 5.2 0 Calma 8 Este 0 -- -- 61
2020-01-07 08:00:00 4.4 2 Sudeste 7 Sudeste 0 -- -- 71
2020-01-07 07:00:00 4.4 3 Este 6 Sudeste 0 -- -- 70
2020-01-07 06:00:00 4.3 3 Sudeste 5 Sudeste 0 -- -- 73
2020-01-07 05:00:00 4.5 2 Este 6 Sudeste 0 -- -- 73
2020-01-07 04:00:00 4.4 0 Calma 6 Este 0 -- -- 74
2020-01-07 03:00:00 4.7 2 Noroeste 7 Sudeste 0 -- -- 80
2020-01-07 02:00:00 4.9 0 Calma 8 Este 0 -- -- 79
2020-01-07 01:00:00 5.1 2 Este 7 Este 0 -- -- 80
2020-01-07 00:00:00 5.4 4 Sudeste 7 Este 0 -- -- 83
2020-01-06 23:00:00 5.9 4 Este 6 Sudeste 0 -- -- 85
2020-01-06 22:00:00 6.5 0 Calma 7 Sudeste 0 -- -- 84
2020-01-06 21:00:00 7.2 0 Calma 5 Este 0 -- -- 85
2020-01-06 20:00:00 8.5 0 Calma 4 Noroeste 0 -- -- 83
2020-01-06 19:00:00 10 0 Calma 11 Oeste 0 -- -- 77
2020-01-06 18:00:00 12.2 4 Noroeste 14 Noroeste 0 -- -- 66
2020-01-06 17:00:00 13.5 6 Norte 13 Noroeste 0 -- -- 60
2020-01-06 16:00:00 14.3 2 Noroeste 9 Noroeste 0 -- -- 57
2020-01-06 15:00:00 13.4 3 Norte 14 Noroeste 0 -- -- 56
2020-01-06 14:00:00 13.3 5 Noroeste 10 Noroeste 0 -- -- 58
2020-01-06 13:00:00 11.9 3 Norte 8 Norte 0 -- -- 65
2020-01-06 12:00:00 9.9 3 Noroeste 6 Noroeste 0 -- -- 72
2020-01-06 11:00:00 8.4 2 Este 5 Este 0 -- -- 74
2020-01-06 10:00:00 5 0 Calma 6 Nordeste 0 -- -- 87